sensor_id;sensor_type;location;lat;lon;timestamp;pressure;altitude;pressure_sealevel;temperature;humidity
55301;BME280;58302;51.446;-2.000;2024-03-02T00:01:48;98049.50;;;1.07;100.00
55301;BME280;58302;51.446;-2.000;2024-03-02T00:04:14;98041.72;;;0.95;100.00
55301;BME280;58302;51.446;-2.000;2024-03-02T00:06:40;98050.75;;;0.84;100.00
55301;BME280;58302;51.446;-2.000;2024-03-02T00:09:09;98049.59;;;0.70;100.00
55301;BME280;58302;51.446;-2.000;2024-03-02T00:11:37;98041.81;;;0.58;100.00
55301;BME280;58302;51.446;-2.000;2024-03-02T00:14:03;98043.91;;;0.51;100.00
55301;BME280;58302;51.446;-2.000;2024-03-02T00:16:30;98051.94;;;0.51;100.00
55301;BME280;58302;51.446;-2.000;2024-03-02T00:19:01;98054.06;;;0.54;100.00
55301;BME280;58302;51.446;-2.000;2024-03-02T00:21:29;98058.38;;;0.55;100.00
55301;BME280;58302;51.446;-2.000;2024-03-02T00:23:56;98058.38;;;0.55;100.00
55301;BME280;58302;51.446;-2.000;2024-03-02T00:26:23;98050.34;;;0.60;100.00
55301;BME280;58302;51.446;-2.000;2024-03-02T00:28:49;98058.66;;;0.59;100.00
55301;BME280;58302;51.446;-2.000;2024-03-02T00:31:19;98066.66;;;0.59;100.00
55301;BME280;58302;51.446;-2.000;2024-03-02T00:33:47;98066.94;;;0.57;100.00
55301;BME280;58302;51.446;-2.000;2024-03-02T00:36:16;98070.63;;;0.51;100.00
55301;BME280;58302;51.446;-2.000;2024-03-02T00:38:49;98068.44;;;0.43;100.00
55301;BME280;58302;51.446;-2.000;2024-03-02T00:41:19;98069.53;;;0.47;100.00
55301;BME280;58302;51.446;-2.000;2024-03-02T00:44:03;98071.97;;;0.53;100.00
55301;BME280;58302;51.446;-2.000;2024-03-02T00:46:41;98079.28;;;0.68;100.00
55301;BME280;58302;51.446;-2.000;2024-03-02T00:51:36;98082.06;;;0.99;100.00
55301;BME280;58302;51.446;-2.000;2024-03-02T00:54:09;98087.50;;;1.14;100.00
55301;BME280;58302;51.446;-2.000;2024-03-02T00:56:35;98083.22;;;1.18;100.00
55301;BME280;58302;51.446;-2.000;2024-03-02T00:59:01;98095.56;;;1.29;100.00
55301;BME280;58302;51.446;-2.000;2024-03-02T01:01:27;98107.13;;;1.40;100.00
55301;BME280;58302;51.446;-2.000;2024-03-02T01:03:54;98099.09;;;1.45;100.00
55301;BME280;58302;51.446;-2.000;2024-03-02T01:06:20;98105.28;;;1.56;100.00
55301;BME280;58302;51.446;-2.000;2024-03-02T01:08:47;98104.22;;;1.57;100.00
55301;BME280;58302;51.446;-2.000;2024-03-02T01:11:17;98108.75;;;1.51;100.00
55301;BME280;58302;51.446;-2.000;2024-03-02T01:13:46;98109.53;;;1.42;100.00
55301;BME280;58302;51.446;-2.000;2024-03-02T01:16:13;98107.66;;;1.32;100.00
55301;BME280;58302;51.446;-2.000;2024-03-02T01:18:39;98107.34;;;1.28;100.00
55301;BME280;58302;51.446;-2.000;2024-03-02T01:21:05;98115.66;;;1.27;100.00
55301;BME280;58302;51.446;-2.000;2024-03-02T01:23:31;98125.78;;;1.25;100.00
55301;BME280;58302;51.446;-2.000;2024-03-02T01:25:57;98113.19;;;1.20;100.00
55301;BME280;58302;51.446;-2.000;2024-03-02T01:28:23;98114.81;;;1.21;100.00
55301;BME280;58302;51.446;-2.000;2024-03-02T01:30:49;98106.78;;;1.16;100.00
55301;BME280;58302;51.446;-2.000;2024-03-02T01:33:16;98116.69;;;1.26;100.00
55301;BME280;58302;51.446;-2.000;2024-03-02T01:35:43;98120.75;;;1.34;100.00
55301;BME280;58302;51.446;-2.000;2024-03-02T01:38:09;98118.13;;;1.49;100.00
55301;BME280;58302;51.446;-2.000;2024-03-02T01:40:36;98129.91;;;1.58;100.00
55301;BME280;58302;51.446;-2.000;2024-03-02T01:43:06;98130.19;;;1.56;100.00
55301;BME280;58302;51.446;-2.000;2024-03-02T01:45:33;98125.34;;;1.58;100.00
55301;BME280;58302;51.446;-2.000;2024-03-02T01:48:00;98126.72;;;1.61;100.00
55301;BME280;58302;51.446;-2.000;2024-03-02T01:50:30;98137.97;;;1.68;100.00
55301;BME280;58302;51.446;-2.000;2024-03-02T01:52:57;98142.81;;;1.76;100.00
55301;BME280;58302;51.446;-2.000;2024-03-02T01:55:24;98145.78;;;1.85;100.00
55301;BME280;58302;51.446;-2.000;2024-03-02T01:57:50;98152.22;;;1.94;100.00
55301;BME280;58302;51.446;-2.000;2024-03-02T02:00:18;98155.97;;;2.08;100.00
55301;BME280;58302;51.446;-2.000;2024-03-02T02:02:46;98173.94;;;2.23;100.00
55301;BME280;58302;51.446;-2.000;2024-03-02T02:05:12;98172.63;;;2.31;100.00
55301;BME280;58302;51.446;-2.000;2024-03-02T02:07:43;98177.72;;;2.37;100.00
55301;BME280;58302;51.446;-2.000;2024-03-02T02:10:12;98182.00;;;2.44;100.00
55301;BME280;58302;51.446;-2.000;2024-03-02T02:12:38;98183.59;;;2.45;100.00
55301;BME280;58302;51.446;-2.000;2024-03-02T02:15:29;98185.75;;;2.48;100.00
55301;BME280;58302;51.446;-2.000;2024-03-02T02:17:57;98184.13;;;2.47;100.00
55301;BME280;58302;51.446;-2.000;2024-03-02T02:20:24;98186.28;;;2.50;100.00
55301;BME280;58302;51.446;-2.000;2024-03-02T02:22:58;98177.97;;;2.51;100.00
55301;BME280;58302;51.446;-2.000;2024-03-02T02:25:25;98180.94;;;2.55;100.00
55301;BME280;58302;51.446;-2.000;2024-03-02T02:27:51;98177.16;;;2.56;100.00
55301;BME280;58302;51.446;-2.000;2024-03-02T02:30:28;98180.66;;;2.56;100.00
55301;BME280;58302;51.446;-2.000;2024-03-02T02:32:54;98186.28;;;2.60;100.00
55301;BME280;58302;51.446;-2.000;2024-03-02T02:35:20;98187.38;;;2.59;100.00
55301;BME280;58302;51.446;-2.000;2024-03-02T02:37:47;98172.88;;;2.60;100.00
55301;BME280;58302;51.446;-2.000;2024-03-02T02:40:13;98168.03;;;2.57;100.00
55301;BME280;58302;51.446;-2.000;2024-03-02T02:42:39;98178.78;;;2.67;100.00
55301;BME280;58302;51.446;-2.000;2024-03-02T02:45:06;98175.81;;;2.69;100.00
55301;BME280;58302;51.446;-2.000;2024-03-02T02:47:33;98178.25;;;2.70;100.00
55301;BME280;58302;51.446;-2.000;2024-03-02T02:50:02;98186.00;;;2.72;100.00
55301;BME280;58302;51.446;-2.000;2024-03-02T02:53:06;98172.88;;;2.65;100.00
55301;BME280;58302;51.446;-2.000;2024-03-02T02:56:20;98151.16;;;2.51;100.00
55301;BME280;58302;51.446;-2.000;2024-03-02T02:59:06;98135.09;;;2.36;100.00
55301;BME280;58302;51.446;-2.000;2024-03-02T03:01:32;98124.13;;;2.22;100.00
55301;BME280;58302;51.446;-2.000;2024-03-02T03:03:59;98113.09;;;2.08;100.00
55301;BME280;58302;51.446;-2.000;2024-03-02T03:06:25;98112.84;;;2.00;100.00
55301;BME280;58302;51.446;-2.000;2024-03-02T03:08:51;98094.63;;;1.87;100.00
55301;BME280;58302;51.446;-2.000;2024-03-02T03:11:17;98079.34;;;1.77;100.00
55301;BME280;58302;51.446;-2.000;2024-03-02T03:13:43;98080.16;;;1.72;100.00
55301;BME280;58302;51.446;-2.000;2024-03-02T03:16:09;98060.06;;;1.60;100.00
55301;BME280;58302;51.446;-2.000;2024-03-02T03:18:35;98057.63;;;1.58;100.00
55301;BME280;58302;51.446;-2.000;2024-03-02T03:21:01;98046.41;;;1.51;100.00
55301;BME280;58302;51.446;-2.000;2024-03-02T03:23:28;98036.75;;;1.40;100.00
55301;BME280;58302;51.446;-2.000;2024-03-02T03:25:54;98023.88;;;1.31;100.00
55301;BME280;58302;51.446;-2.000;2024-03-02T03:28:20;98011.81;;;1.14;100.00
55301;BME280;58302;51.446;-2.000;2024-03-02T03:30:46;98014.72;;;1.02;100.00
55301;BME280;58302;51.446;-2.000;2024-03-02T03:33:11;97999.19;;;0.89;100.00
55301;BME280;58302;51.446;-2.000;2024-03-02T03:35:39;98011.19;;;0.86;100.00
55301;BME280;58302;51.446;-2.000;2024-03-02T03:38:08;97994.63;;;0.89;100.00
55301;BME280;58302;51.446;-2.000;2024-03-02T03:40:34;97983.63;;;0.81;100.00
55301;BME280;58302;51.446;-2.000;2024-03-02T03:43:18;97979.38;;;0.85;100.00
55301;BME280;58302;51.446;-2.000;2024-03-02T03:45:45;97978.56;;;0.84;100.00
55301;BME280;58302;51.446;-2.000;2024-03-02T03:48:11;97963.03;;;0.81;100.00
55301;BME280;58302;51.446;-2.000;2024-03-02T03:50:37;97954.75;;;0.77;100.00
55301;BME280;58302;51.446;-2.000;2024-03-02T03:53:04;97949.13;;;0.69;100.00
55301;BME280;58302;51.446;-2.000;2024-03-02T03:55:30;97945.34;;;0.65;100.00
55301;BME280;58302;51.446;-2.000;2024-03-02T03:57:55;97938.41;;;0.64;100.00
55301;BME280;58302;51.446;-2.000;2024-03-02T04:00:21;97946.69;;;0.62;100.00
55301;BME280;58302;51.446;-2.000;2024-03-02T04:02:47;97933.31;;;0.62;100.00
55301;BME280;58302;51.446;-2.000;2024-03-02T04:05:14;97938.16;;;0.70;100.00
55301;BME280;58302;51.446;-2.000;2024-03-02T04:07:40;97940.03;;;0.70;100.00
55301;BME280;58302;51.446;-2.000;2024-03-02T04:10:08;97942.41;;;0.71;100.00
55301;BME280;58302;51.446;-2.000;2024-03-02T04:12:35;97927.97;;;0.57;100.00
55301;BME280;58302;51.446;-2.000;2024-03-02T04:15:04;97933.28;;;0.47;100.00
55301;BME280;58302;51.446;-2.000;2024-03-02T04:17:33;97941.28;;;0.47;100.00
55301;BME280;58302;51.446;-2.000;2024-03-02T04:19:59;97943.91;;;0.37;100.00
55301;BME280;58302;51.446;-2.000;2024-03-02T04:22:27;97945.22;;;0.29;100.00
55301;BME280;58302;51.446;-2.000;2024-03-02T04:24:53;97933.97;;;0.27;100.00
55301;BME280;58302;51.446;-2.000;2024-03-02T04:27:20;97944.72;;;0.37;100.00
55301;BME280;58302;51.446;-2.000;2024-03-02T04:29:46;97939.63;;;0.31;100.00
55301;BME280;58302;51.446;-2.000;2024-03-02T04:32:11;97933.75;;;0.29;100.00
55301;BME280;58302;51.446;-2.000;2024-03-02T04:34:37;97948.16;;;0.28;100.00
55301;BME280;58302;51.446;-2.000;2024-03-02T04:37:03;97945.50;;;0.33;100.00
55301;BME280;58302;51.446;-2.000;2024-03-02T04:39:29;97945.78;;;0.36;100.00
55301;BME280;58302;51.446;-2.000;2024-03-02T04:41:55;97942.63;;;0.55;100.00
55301;BME280;58302;51.446;-2.000;2024-03-02T04:44:22;97947.50;;;0.68;100.00
55301;BME280;58302;51.446;-2.000;2024-03-02T04:46:48;97951.50;;;0.70;100.00
55301;BME280;58302;51.446;-2.000;2024-03-02T04:49:17;97962.25;;;0.81;100.00
55301;BME280;58302;51.446;-2.000;2024-03-02T04:51:43;97963.88;;;0.92;100.00
55301;BME280;58302;51.446;-2.000;2024-03-02T04:54:09;97969.25;;;0.97;100.00
55301;BME280;58302;51.446;-2.000;2024-03-02T04:56:35;97983.44;;;1.08;100.00
55301;BME280;58302;51.446;-2.000;2024-03-02T04:59:18;98001.91;;;1.14;100.00
55301;BME280;58302;51.446;-2.000;2024-03-02T05:01:45;98030.56;;;1.24;100.00
55301;BME280;58302;51.446;-2.000;2024-03-02T05:04:11;98025.22;;;1.29;100.00
55301;BME280;58302;51.446;-2.000;2024-03-02T05:06:38;98055.97;;;1.31;100.00
55301;BME280;58302;51.446;-2.000;2024-03-02T05:09:10;98039.94;;;1.37;100.00
55301;BME280;58302;51.446;-2.000;2024-03-02T05:11:36;98040.50;;;1.39;100.00
55301;BME280;58302;51.446;-2.000;2024-03-02T05:14:07;98050.66;;;1.42;100.00
55301;BME280;58302;51.446;-2.000;2024-03-02T05:16:35;98058.69;;;1.42;100.00
55301;BME280;58302;51.446;-2.000;2024-03-02T05:19:02;98058.16;;;1.45;100.00
55301;BME280;58302;51.446;-2.000;2024-03-02T05:21:28;98064.31;;;1.50;100.00
55301;BME280;58302;51.446;-2.000;2024-03-02T05:23:54;98066.19;;;1.50;100.00
55301;BME280;58302;51.446;-2.000;2024-03-02T05:26:23;98077.97;;;1.59;100.00
55301;BME280;58302;51.446;-2.000;2024-03-02T05:28:49;98084.41;;;1.58;100.00
55301;BME280;58302;51.446;-2.000;2024-03-02T05:31:15;98102.63;;;1.66;100.00
55301;BME280;58302;51.446;-2.000;2024-03-02T05:33:42;98110.69;;;1.71;100.00
55301;BME280;58302;51.446;-2.000;2024-03-02T05:36:08;98120.84;;;1.74;100.00
55301;BME280;58302;51.446;-2.000;2024-03-02T05:38:35;98135.28;;;1.68;100.00
55301;BME280;58302;51.446;-2.000;2024-03-02T05:41:01;98136.38;;;1.67;100.00
55301;BME280;58302;51.446;-2.000;2024-03-02T05:43:27;98141.72;;;1.62;100.00
55301;BME280;58302;51.446;-2.000;2024-03-02T05:45:53;98139.00;;;1.57;100.00
55301;BME280;58302;51.446;-2.000;2024-03-02T05:48:19;98144.38;;;1.57;100.00
55301;BME280;58302;51.446;-2.000;2024-03-02T05:50:45;98335.19;;;1.52;100.00
55301;BME280;58302;51.446;-2.000;2024-03-02T05:53:11;98250.03;;;1.44;100.00
55301;BME280;58302;51.446;-2.000;2024-03-02T05:55:37;98236.06;;;1.37;100.00
55301;BME280;58302;51.446;-2.000;2024-03-02T05:58:03;98225.91;;;1.34;100.00
55301;BME280;58302;51.446;-2.000;2024-03-02T06:00:32;98221.31;;;1.24;100.00
55301;BME280;58302;51.446;-2.000;2024-03-02T06:02:59;98212.69;;;1.12;100.00
55301;BME280;58302;51.446;-2.000;2024-03-02T06:05:25;98220.13;;;1.05;100.00
55301;BME280;58302;51.446;-2.000;2024-03-02T06:07:50;98210.44;;;0.94;100.00
55301;BME280;58302;51.446;-2.000;2024-03-02T06:10:16;98214.69;;;0.90;100.00
55301;BME280;58302;51.446;-2.000;2024-03-02T06:12:43;98216.78;;;0.88;100.00
55301;BME280;58302;51.446;-2.000;2024-03-02T06:15:09;98218.41;;;0.89;100.00
55301;BME280;58302;51.446;-2.000;2024-03-02T06:17:36;98232.28;;;0.86;100.00
55301;BME280;58302;51.446;-2.000;2024-03-02T06:20:03;98231.75;;;0.84;100.00
55301;BME280;58302;51.446;-2.000;2024-03-02T06:22:29;98239.16;;;0.76;100.00
55301;BME280;58302;51.446;-2.000;2024-03-02T06:24:55;98236.13;;;0.63;100.00
55301;BME280;58302;51.446;-2.000;2024-03-02T06:27:21;98234.47;;;0.57;100.00
55301;BME280;58302;51.446;-2.000;2024-03-02T06:29:48;98234.69;;;0.50;100.00
55301;BME280;58302;51.446;-2.000;2024-03-02T06:32:15;98234.88;;;0.43;100.00
55301;BME280;58302;51.446;-2.000;2024-03-02T06:34:41;98242.00;;;0.33;100.00
55301;BME280;58302;51.446;-2.000;2024-03-02T06:37:07;98251.41;;;0.35;100.00
55301;BME280;58302;51.446;-2.000;2024-03-02T06:39:33;98248.38;;;0.26;100.00
55301;BME280;58302;51.446;-2.000;2024-03-02T06:42:01;98254.44;;;0.22;100.00
55301;BME280;58302;51.446;-2.000;2024-03-02T06:44:27;98262.44;;;0.17;100.00
55301;BME280;58302;51.446;-2.000;2024-03-02T06:46:54;98267.72;;;0.12;100.00
55301;BME280;58302;51.446;-2.000;2024-03-02T06:49:20;98270.41;;;0.12;100.00
55301;BME280;58302;51.446;-2.000;2024-03-02T06:51:47;98264.44;;;0.05;100.00
55301;BME280;58302;51.446;-2.000;2024-03-02T06:54:13;98273.22;;;0.00;100.00
55301;BME280;58302;51.446;-2.000;2024-03-02T06:56:40;98279.31;;;-0.05;100.00
55301;BME280;58302;51.446;-2.000;2024-03-02T06:59:06;98295.94;;;0.03;100.00
55301;BME280;58302;51.446;-2.000;2024-03-02T07:01:38;98302.63;;;0.05;100.00
55301;BME280;58302;51.446;-2.000;2024-03-02T07:04:08;98323.22;;;0.10;100.00
55301;BME280;58302;51.446;-2.000;2024-03-02T07:06:34;98316.81;;;0.06;100.00
55301;BME280;58302;51.446;-2.000;2024-03-02T07:09:01;98321.81;;;0.02;100.00
55301;BME280;58302;51.446;-2.000;2024-03-02T07:11:30;98327.66;;;-0.01;100.00
55301;BME280;58302;51.446;-2.000;2024-03-02T07:13:57;98340.44;;;-0.03;100.00
55301;BME280;58302;51.446;-2.000;2024-03-02T07:16:23;98339.84;;;-0.10;100.00
55301;BME280;58302;51.446;-2.000;2024-03-02T07:18:58;98339.84;;;-0.10;100.00
55301;BME280;58302;51.446;-2.000;2024-03-02T07:21:24;98354.78;;;-0.09;100.00
55301;BME280;58302;51.446;-2.000;2024-03-02T07:23:50;98348.13;;;-0.07;100.00
55301;BME280;58302;51.446;-2.000;2024-03-02T07:26:17;98351.44;;;0.01;100.00
55301;BME280;58302;51.446;-2.000;2024-03-02T07:28:46;98344.78;;;0.03;100.00
55301;BME280;58302;51.446;-2.000;2024-03-02T07:31:13;98351.25;;;0.07;100.00
55301;BME280;58302;51.446;-2.000;2024-03-02T07:33:40;98349.44;;;0.13;100.00
55301;BME280;58302;51.446;-2.000;2024-03-02T07:36:07;98345.91;;;0.07;100.00
55301;BME280;58302;51.446;-2.000;2024-03-02T07:38:34;98337.59;;;0.04;100.00
55301;BME280;58302;51.446;-2.000;2024-03-02T07:41:01;98355.00;;;0.06;100.00
55301;BME280;58302;51.446;-2.000;2024-03-02T07:43:27;98356.03;;;0.05;100.00
55301;BME280;58302;51.446;-2.000;2024-03-02T07:45:53;98363.06;;;0.11;100.00
55301;BME280;58302;51.446;-2.000;2024-03-02T07:48:19;98377.16;;;0.29;100.00
55301;BME280;58302;51.446;-2.000;2024-03-02T07:50:45;98387.13;;;0.38;100.00
55301;BME280;58302;51.446;-2.000;2024-03-02T07:53:11;98400.31;;;0.45;100.00
55301;BME280;58302;51.446;-2.000;2024-03-02T07:55:37;98406.59;;;0.56;100.00
55301;BME280;58302;51.446;-2.000;2024-03-02T07:58:03;98408.09;;;0.73;100.00
55301;BME280;58302;51.446;-2.000;2024-03-02T08:00:29;98397.91;;;0.70;100.00
55301;BME280;58302;51.446;-2.000;2024-03-02T08:02:56;98407.03;;;0.74;100.00
55301;BME280;58302;51.446;-2.000;2024-03-02T08:05:22;98416.72;;;0.81;100.00
55301;BME280;58302;51.446;-2.000;2024-03-02T08:07:49;98409.72;;;0.74;100.00
55301;BME280;58302;51.446;-2.000;2024-03-02T08:10:18;98422.53;;;0.72;100.00
55301;BME280;58302;51.446;-2.000;2024-03-02T08:12:45;98421.69;;;0.67;100.00
55301;BME280;58302;51.446;-2.000;2024-03-02T08:15:11;98410.72;;;0.68;100.00
55301;BME280;58302;51.446;-2.000;2024-03-02T08:17:39;98407.03;;;0.74;100.00
55301;BME280;58302;51.446;-2.000;2024-03-02T08:20:14;98409.81;;;0.85;100.00
55301;BME280;58302;51.446;-2.000;2024-03-02T08:22:40;98412.03;;;0.93;100.00
55301;BME280;58302;51.446;-2.000;2024-03-02T08:25:06;98418.69;;;1.17;100.00
55301;BME280;58302;51.446;-2.000;2024-03-02T08:27:33;98413.53;;;1.38;100.00
55301;BME280;58302;51.446;-2.000;2024-03-02T08:29:59;98420.88;;;1.57;100.00
55301;BME280;58302;51.446;-2.000;2024-03-02T08:32:25;98409.34;;;1.52;100.00
55301;BME280;58302;51.446;-2.000;2024-03-02T08:34:51;98396.53;;;1.54;100.00
55301;BME280;58302;51.446;-2.000;2024-03-02T08:37:18;98398.97;;;1.61;100.00
55301;BME280;58302;51.446;-2.000;2024-03-02T08:39:45;98393.88;;;1.64;100.00
55301;BME280;58302;51.446;-2.000;2024-03-02T08:42:11;98379.69;;;1.64;100.00
55301;BME280;58302;51.446;-2.000;2024-03-02T08:44:37;98377.59;;;1.66;100.00
55301;BME280;58302;51.446;-2.000;2024-03-02T08:47:03;98390.78;;;1.77;100.00
55301;BME280;58302;51.446;-2.000;2024-03-02T08:49:29;98374.53;;;1.94;100.00
55301;BME280;58302;51.446;-2.000;2024-03-02T08:51:55;98396.66;;;2.27;100.00
55301;BME280;58302;51.446;-2.000;2024-03-02T08:54:21;98382.50;;;2.47;100.00
55301;BME280;58302;51.446;-2.000;2024-03-02T08:56:49;98383.34;;;2.62;100.00
55301;BME280;58302;51.446;-2.000;2024-03-02T08:59:15;98373.22;;;2.90;100.00
55301;BME280;58302;51.446;-2.000;2024-03-02T09:01:42;98369.22;;;3.18;100.00
55301;BME280;58302;51.446;-2.000;2024-03-02T09:04:08;98353.91;;;3.44;100.00
55301;BME280;58302;51.446;-2.000;2024-03-02T09:06:36;98360.53;;;3.92;100.00
55301;BME280;58302;51.446;-2.000;2024-03-02T09:09:02;98331.44;;;4.15;100.00
55301;BME280;58302;51.446;-2.000;2024-03-02T09:11:31;98321.41;;;4.36;100.00
55301;BME280;58302;51.446;-2.000;2024-03-02T09:13:58;98302.34;;;4.27;100.00
55301;BME280;58302;51.446;-2.000;2024-03-02T09:16:24;98276.91;;;4.09;100.00
55301;BME280;58302;51.446;-2.000;2024-03-02T09:18:53;98268.56;;;4.06;100.00
55301;BME280;58302;51.446;-2.000;2024-03-02T09:21:19;98239.25;;;4.09;100.00
55301;BME280;58302;51.446;-2.000;2024-03-02T09:23:45;98243.00;;;4.13;100.00
55301;BME280;58302;51.446;-2.000;2024-03-02T09:26:11;98222.06;;;4.10;100.00
55301;BME280;58302;51.446;-2.000;2024-03-02T09:28:37;98212.16;;;4.01;100.00
55301;BME280;58302;51.446;-2.000;2024-03-02T09:31:03;98201.97;;;3.97;100.00
55301;BME280;58302;51.446;-2.000;2024-03-02T09:33:29;98185.88;;;3.92;100.00
55301;BME280;58302;51.446;-2.000;2024-03-02T09:35:55;98185.59;;;3.94;100.00
55301;BME280;58302;51.446;-2.000;2024-03-02T09:38:21;98176.75;;;3.93;100.00
55301;BME280;58302;51.446;-2.000;2024-03-02T09:40:47;98159.47;;;4.05;100.00
55301;BME280;58302;51.446;-2.000;2024-03-02T09:43:14;98140.19;;;3.97;100.00
55301;BME280;58302;51.446;-2.000;2024-03-02T09:45:40;98124.72;;;3.79;100.00
55301;BME280;58302;51.446;-2.000;2024-03-02T09:48:06;98117.94;;;3.87;100.00
55301;BME280;58302;51.446;-2.000;2024-03-02T09:50:32;98107.94;;;3.97;100.00
55301;BME280;58302;51.446;-2.000;2024-03-02T09:52:59;98106.63;;;4.29;100.00
55301;BME280;58302;51.446;-2.000;2024-03-02T09:55:25;98110.91;;;4.59;100.00
55301;BME280;58302;51.446;-2.000;2024-03-02T09:57:51;98095.66;;;4.79;100.00
55301;BME280;58302;51.446;-2.000;2024-03-02T10:00:17;98086.88;;;4.92;100.00
55301;BME280;58302;51.446;-2.000;2024-03-02T10:02:43;98074.88;;;4.84;100.00
55301;BME280;58302;51.446;-2.000;2024-03-02T10:05:10;98063.53;;;4.87;100.00
55301;BME280;58302;51.446;-2.000;2024-03-02T10:07:36;98056.81;;;4.61;100.00
55301;BME280;58302;51.446;-2.000;2024-03-02T10:10:13;98046.44;;;4.49;100.00
55301;BME280;58302;51.446;-2.000;2024-03-02T10:12:39;98057.09;;;4.35;100.00
55301;BME280;58302;51.446;-2.000;2024-03-02T10:15:06;98051.84;;;4.20;100.00
55301;BME280;58302;51.446;-2.000;2024-03-02T10:17:33;98047.25;;;4.20;100.00
55301;BME280;58302;51.446;-2.000;2024-03-02T10:19:59;98043.59;;;4.64;100.00
55301;BME280;58302;51.446;-2.000;2024-03-02T10:22:26;98044.28;;;4.99;100.00
55301;BME280;58302;51.446;-2.000;2024-03-02T10:24:52;98048.19;;;4.88;100.00
55301;BME280;58302;51.446;-2.000;2024-03-02T10:27:23;98042.13;;;5.01;100.00
55301;BME280;58302;51.446;-2.000;2024-03-02T10:29:50;98058.47;;;5.05;100.00
55301;BME280;58302;51.446;-2.000;2024-03-02T10:32:16;98072.44;;;4.83;100.00
55301;BME280;58302;51.446;-2.000;2024-03-02T10:34:44;98075.59;;;4.66;100.00
55301;BME280;58302;51.446;-2.000;2024-03-02T10:37:11;98082.97;;;4.55;100.00
55301;BME280;58302;51.446;-2.000;2024-03-02T10:39:38;98090.38;;;4.39;100.00
55301;BME280;58302;51.446;-2.000;2024-03-02T10:42:07;98103.44;;;4.22;100.00
55301;BME280;58302;51.446;-2.000;2024-03-02T10:44:34;98098.78;;;4.33;100.00
55301;BME280;58302;51.446;-2.000;2024-03-02T10:47:02;98113.88;;;4.58;100.00
55301;BME280;58302;51.446;-2.000;2024-03-02T10:49:31;98114.09;;;4.90;100.00
55301;BME280;58302;51.446;-2.000;2024-03-02T10:52:00;98137.88;;;5.07;100.00
55301;BME280;58302;51.446;-2.000;2024-03-02T10:54:27;98163.19;;;5.30;100.00
55301;BME280;58302;51.446;-2.000;2024-03-02T10:56:59;98186.16;;;5.46;100.00
55301;BME280;58302;51.446;-2.000;2024-03-02T10:59:37;98227.03;;;5.53;100.00
55301;BME280;58302;51.446;-2.000;2024-03-02T11:02:12;98244.78;;;5.54;100.00
55301;BME280;58302;51.446;-2.000;2024-03-02T11:04:40;98280.84;;;5.35;100.00
55301;BME280;58302;51.446;-2.000;2024-03-02T11:07:09;98328.16;;;5.12;100.00
55301;BME280;58302;51.446;-2.000;2024-03-02T11:09:40;98377.88;;;4.85;100.00
55301;BME280;58302;51.446;-2.000;2024-03-02T11:12:23;98408.34;;;4.70;100.00
55301;BME280;58302;51.446;-2.000;2024-03-02T11:14:51;98424.75;;;4.79;100.00
55301;BME280;58302;51.446;-2.000;2024-03-02T11:17:18;98432.84;;;4.74;100.00
55301;BME280;58302;51.446;-2.000;2024-03-02T11:19:46;98441.72;;;4.69;100.00
55301;BME280;58302;51.446;-2.000;2024-03-02T11:22:13;98449.00;;;4.69;100.00
55301;BME280;58302;51.446;-2.000;2024-03-02T11:24:50;98446.47;;;4.88;100.00
55301;BME280;58302;51.446;-2.000;2024-03-02T11:33:04;98446.91;;;5.49;100.00
55301;BME280;58302;51.446;-2.000;2024-03-02T11:35:37;98452.50;;;5.58;100.00
55301;BME280;58302;51.446;-2.000;2024-03-02T11:38:07;98453.53;;;5.62;100.00
55301;BME280;58302;51.446;-2.000;2024-03-02T11:40:34;98478.09;;;5.90;100.00
55301;BME280;58302;51.446;-2.000;2024-03-02T11:43:00;98480.53;;;5.91;100.00
55301;BME280;58302;51.446;-2.000;2024-03-02T11:45:26;98510.63;;;6.03;100.00
55301;BME280;58302;51.446;-2.000;2024-03-02T11:47:59;98522.59;;;6.50;100.00
55301;BME280;58302;51.446;-2.000;2024-03-02T11:50:35;98572.63;;;6.91;100.00
55301;BME280;58302;51.446;-2.000;2024-03-02T11:53:09;98614.63;;;7.02;100.00
55301;BME280;58302;51.446;-2.000;2024-03-02T11:55:39;98658.38;;;7.04;100.00
55301;BME280;58302;51.446;-2.000;2024-03-02T11:58:08;98702.44;;;6.99;100.00
55301;BME280;58302;51.446;-2.000;2024-03-02T12:00:34;98759.41;;;6.69;100.00
55301;BME280;58302;51.446;-2.000;2024-03-02T12:03:10;98792.03;;;6.72;100.00
55301;BME280;58302;51.446;-2.000;2024-03-02T12:05:37;98802.25;;;6.75;100.00
55301;BME280;58302;51.446;-2.000;2024-03-02T12:08:05;98824.25;;;6.53;100.00
55301;BME280;58302;51.446;-2.000;2024-03-02T12:10:36;98824.19;;;6.69;100.00
55301;BME280;58302;51.446;-2.000;2024-03-02T12:13:04;98820.34;;;6.75;100.00
55301;BME280;58302;51.446;-2.000;2024-03-02T12:15:34;98814.31;;;6.93;100.00
55301;BME280;58302;51.446;-2.000;2024-03-02T12:18:02;98823.66;;;6.67;100.00
55301;BME280;58302;51.446;-2.000;2024-03-02T12:20:30;98843.16;;;6.53;100.00
55301;BME280;58302;51.446;-2.000;2024-03-02T12:23:02;98844.09;;;6.28;100.00
55301;BME280;58302;51.446;-2.000;2024-03-02T12:25:31;98834.75;;;6.11;100.00
55301;BME280;58302;51.446;-2.000;2024-03-02T12:28:14;98832.88;;;5.86;100.00
55301;BME280;58302;51.446;-2.000;2024-03-02T12:30:40;98817.00;;;5.79;100.00
55301;BME280;58302;51.446;-2.000;2024-03-02T12:33:06;98801.94;;;5.78;100.00
55301;BME280;58302;51.446;-2.000;2024-03-02T12:35:38;98776.25;;;5.91;100.00
55301;BME280;58302;51.446;-2.000;2024-03-02T12:38:09;98763.84;;;6.05;100.00
55301;BME280;58302;51.446;-2.000;2024-03-02T12:40:39;98761.16;;;6.05;100.00
55301;BME280;58302;51.446;-2.000;2024-03-02T12:43:06;98757.53;;;6.20;100.00
55301;BME280;58302;51.446;-2.000;2024-03-02T12:45:32;98754.84;;;6.20;100.00
55301;BME280;58302;51.446;-2.000;2024-03-02T12:48:01;98771.44;;;6.42;100.00
55301;BME280;58302;51.446;-2.000;2024-03-02T12:50:30;98780.25;;;6.58;100.00
55301;BME280;58302;51.446;-2.000;2024-03-02T12:52:56;98786.31;;;6.40;100.00
55301;BME280;58302;51.446;-2.000;2024-03-02T12:55:33;98792.59;;;6.25;100.00
55301;BME280;58302;51.446;-2.000;2024-03-02T12:58:02;98806.75;;;5.96;100.00
55301;BME280;58302;51.446;-2.000;2024-03-02T13:00:28;98794.66;;;5.78;100.00
55301;BME280;58302;51.446;-2.000;2024-03-02T13:02:58;98765.78;;;5.79;100.00